Terminal Aerodrome Forecast
Issued by NWS

Current Version | Previous Version | Graphics & Text | Print | Product List | Glossary On
Versions: 1 2 3 4 5 6 7 8 9 10 11 12 13 14 15 16 17 18 19 20 21 22 23 24
000
FTUS41 KRLX 200856 AAA
TAFCKB
TAF AMD
KCKB 200856Z 2009/2106 00000KT 3SM BR FEW070
     FM201200 22003KT P6SM SCT250
     FM201600 25006KT P6SM SCT060
     FM210100 21002KT P6SM SCT080
     FM210400 VRB02KT P6SM BKN080=

USA.gov is the U.S. government's official web portal to all federal, state and local government web resources and services.